Petersburg James A Johnson Airport
PAPG : now visible

Airfield :











YOU CAN JOIN US ON...

 
LOGIN :

Register | Disclaimer

   EN    FR    IT 

 









Legend :    VFR   Marginal VFR   IFR   Intensive IFR   Very Intensive IFR
Visi :
Ceiling :
>= 8 km
>= 3000ft
5 to 8 km
1000 to 3000 ft
1500m to 5 km
500 to 1000 ft
800 to 1500m
200 to 500 ft
< 800m
< 200 ft
Symbols :   Thunderstorms  Fog  Heavy snow  Heavy precipitations  Wind > 20 kt






- Airport Elevation : 111 ft
- IATA code : PSG


PAPG - Petersburg James A Johnson

CURRENT METAR :
  • 090158Z 00000KT 10SM FEW007 BKN025 OVC030 01/00 A3019 RMK AO2

EXPIRED METARs :
  • 090058Z 22003KT 10SM FEW008 BKN024 OVC042 01/01 A3019 RMK AO2
  • 082358Z 00000KT 10SM FEW010 BKN024 OVC035 01/01 A3019 RMK AO2
  • 082338Z 00000KT 10SM FEW008 BKN026 OVC035 01/01 A3019 RMK AO2

TAF PAPG
Valid from the 09 at 00:00 until the 10 at 00:00 UTC


082338Z 0900/0924 VRB03KT P6SM BKN030 BKN040
TEMPO 0900/0903 BKN035
FM090300 VRB03KT P6SM BKN040
FM090900 VRB03KT 5SM BR BKN005
FM091500 VRB03KT P6SM FEW005 BKN250 AMD LTD TO CLD VIS AND WIND 0906/0915



MET'MAP, your aeronautical weather chart ! - Copyright ORBIFLY December 2007 - Disclaimer

ORBIFLY MET'MAP TEAM :

Programming & Development : Alexandra Zaïnal
Concept & original design : Baudouin d'Aumeries
Assistance for programming : Marc-Olivier Méhu
Technical & hardware support : Manuel Goepfert

Contact : metmap@orbifly.com




SOURCES & CREDITS :

   NOAA       Earth
Advisory